sensor_id;sensor_type;location;lat;lon;timestamp;P1;durP1;ratioP1;P2;durP2;ratioP2
18732;SDS011;9495;51.210;2.934;2023-05-10T00:01:02;48.70;;;21.97;;
18732;SDS011;9495;51.210;2.934;2023-05-10T00:03:31;44.13;;;21.30;;
18732;SDS011;9495;51.210;2.934;2023-05-10T00:06:00;47.90;;;22.97;;
18732;SDS011;9495;51.210;2.934;2023-05-10T00:08:29;49.20;;;21.87;;
18732;SDS011;9495;51.210;2.934;2023-05-10T00:10:57;52.57;;;23.10;;
18732;SDS011;9495;51.210;2.934;2023-05-10T00:13:26;49.73;;;22.13;;
18732;SDS011;9495;51.210;2.934;2023-05-10T00:15:55;47.90;;;24.47;;
18732;SDS011;9495;51.210;2.934;2023-05-10T00:18:23;50.97;;;25.83;;
18732;SDS011;9495;51.210;2.934;2023-05-10T00:20:53;47.83;;;24.57;;
18732;SDS011;9495;51.210;2.934;2023-05-10T00:23:22;51.97;;;26.03;;
18732;SDS011;9495;51.210;2.934;2023-05-10T00:25:50;58.90;;;26.23;;
18732;SDS011;9495;51.210;2.934;2023-05-10T00:28:18;58.77;;;26.97;;
18732;SDS011;9495;51.210;2.934;2023-05-10T00:30:47;58.67;;;28.63;;
18732;SDS011;9495;51.210;2.934;2023-05-10T00:33:15;60.00;;;28.87;;
18732;SDS011;9495;51.210;2.934;2023-05-10T00:35:44;64.30;;;29.63;;
18732;SDS011;9495;51.210;2.934;2023-05-10T00:38:14;64.40;;;30.73;;
18732;SDS011;9495;51.210;2.934;2023-05-10T00:40:42;67.10;;;31.97;;
18732;SDS011;9495;51.210;2.934;2023-05-10T00:43:11;61.13;;;31.63;;
18732;SDS011;9495;51.210;2.934;2023-05-10T00:45:39;66.73;;;31.87;;
18732;SDS011;9495;51.210;2.934;2023-05-10T00:48:08;78.87;;;36.97;;
18732;SDS011;9495;51.210;2.934;2023-05-10T00:50:37;84.00;;;37.80;;
18732;SDS011;9495;51.210;2.934;2023-05-10T00:53:06;83.20;;;39.00;;
18732;SDS011;9495;51.210;2.934;2023-05-10T00:55:37;97.67;;;43.00;;
18732;SDS011;9495;51.210;2.934;2023-05-10T00:58:05;98.37;;;44.10;;
18732;SDS011;9495;51.210;2.934;2023-05-10T01:00:34;97.77;;;43.53;;
18732;SDS011;9495;51.210;2.934;2023-05-10T01:03:04;100.97;;;46.20;;
18732;SDS011;9495;51.210;2.934;2023-05-10T01:05:32;94.43;;;46.10;;
18732;SDS011;9495;51.210;2.934;2023-05-10T01:08:01;101.30;;;45.57;;
18732;SDS011;9495;51.210;2.934;2023-05-10T01:10:30;100.43;;;44.07;;
18732;SDS011;9495;51.210;2.934;2023-05-10T01:13:00;91.97;;;43.03;;
18732;SDS011;9495;51.210;2.934;2023-05-10T01:15:29;87.07;;;42.70;;
18732;SDS011;9495;51.210;2.934;2023-05-10T01:17:58;83.10;;;40.47;;
18732;SDS011;9495;51.210;2.934;2023-05-10T01:20:28;76.67;;;38.13;;
18732;SDS011;9495;51.210;2.934;2023-05-10T01:26:16;68.27;;;34.87;;
18732;SDS011;9495;51.210;2.934;2023-05-10T01:29:24;65.47;;;33.53;;
18732;SDS011;9495;51.210;2.934;2023-05-10T01:32:25;60.67;;;33.47;;
18732;SDS011;9495;51.210;2.934;2023-05-10T01:34:59;61.60;;;31.13;;
18732;SDS011;9495;51.210;2.934;2023-05-10T01:37:36;57.77;;;32.83;;
18732;SDS011;9495;51.210;2.934;2023-05-10T01:40:12;58.27;;;30.63;;
18732;SDS011;9495;51.210;2.934;2023-05-10T01:42:47;57.03;;;29.70;;
18732;SDS011;9495;51.210;2.934;2023-05-10T01:45:20;51.73;;;29.50;;
18732;SDS011;9495;51.210;2.934;2023-05-10T01:48:02;53.00;;;28.83;;
18732;SDS011;9495;51.210;2.934;2023-05-10T01:50:34;49.10;;;28.17;;
18732;SDS011;9495;51.210;2.934;2023-05-10T01:53:05;49.63;;;29.23;;
18732;SDS011;9495;51.210;2.934;2023-05-10T01:55:35;59.27;;;30.97;;
18732;SDS011;9495;51.210;2.934;2023-05-10T01:58:11;60.40;;;32.23;;
18732;SDS011;9495;51.210;2.934;2023-05-10T02:00:42;61.40;;;32.60;;
18732;SDS011;9495;51.210;2.934;2023-05-10T02:03:13;61.93;;;33.93;;
18732;SDS011;9495;51.210;2.934;2023-05-10T02:05:43;52.60;;;31.27;;
18732;SDS011;9495;51.210;2.934;2023-05-10T02:08:15;50.20;;;28.10;;
18732;SDS011;9495;51.210;2.934;2023-05-10T02:10:46;49.10;;;26.93;;
18732;SDS011;9495;51.210;2.934;2023-05-10T02:13:18;46.83;;;26.60;;
18732;SDS011;9495;51.210;2.934;2023-05-10T02:15:47;32.03;;;18.87;;
18732;SDS011;9495;51.210;2.934;2023-05-10T02:18:18;33.97;;;22.00;;
18732;SDS011;9495;51.210;2.934;2023-05-10T02:20:48;37.33;;;24.07;;
18732;SDS011;9495;51.210;2.934;2023-05-10T02:23:17;36.30;;;21.80;;
18732;SDS011;9495;51.210;2.934;2023-05-10T02:25:46;36.57;;;22.07;;
18732;SDS011;9495;51.210;2.934;2023-05-10T02:28:17;36.47;;;20.27;;
18732;SDS011;9495;51.210;2.934;2023-05-10T02:30:46;29.03;;;18.97;;
18732;SDS011;9495;51.210;2.934;2023-05-10T02:33:15;27.83;;;18.60;;
18732;SDS011;9495;51.210;2.934;2023-05-10T02:35:47;28.77;;;16.33;;
18732;SDS011;9495;51.210;2.934;2023-05-10T02:38:16;25.97;;;15.57;;
18732;SDS011;9495;51.210;2.934;2023-05-10T02:40:48;30.20;;;15.77;;
18732;SDS011;9495;51.210;2.934;2023-05-10T02:43:18;31.67;;;19.67;;
18732;SDS011;9495;51.210;2.934;2023-05-10T02:45:50;40.73;;;21.87;;
18732;SDS011;9495;51.210;2.934;2023-05-10T02:48:19;42.70;;;21.07;;
18732;SDS011;9495;51.210;2.934;2023-05-10T02:50:49;33.30;;;18.17;;
18732;SDS011;9495;51.210;2.934;2023-05-10T02:53:21;44.17;;;21.63;;
18732;SDS011;9495;51.210;2.934;2023-05-10T02:55:51;34.47;;;20.83;;
18732;SDS011;9495;51.210;2.934;2023-05-10T02:58:24;37.20;;;19.27;;
18732;SDS011;9495;51.210;2.934;2023-05-10T03:00:53;39.80;;;21.23;;
18732;SDS011;9495;51.210;2.934;2023-05-10T03:03:21;42.97;;;21.87;;
18732;SDS011;9495;51.210;2.934;2023-05-10T03:05:51;55.83;;;24.63;;
18732;SDS011;9495;51.210;2.934;2023-05-10T03:08:22;39.17;;;19.57;;
18732;SDS011;9495;51.210;2.934;2023-05-10T03:10:54;47.27;;;22.50;;
18732;SDS011;9495;51.210;2.934;2023-05-10T03:13:29;35.77;;;21.77;;
18732;SDS011;9495;51.210;2.934;2023-05-10T03:16:05;37.57;;;22.87;;
18732;SDS011;9495;51.210;2.934;2023-05-10T03:18:37;33.97;;;18.10;;
18732;SDS011;9495;51.210;2.934;2023-05-10T03:21:11;29.93;;;19.23;;
18732;SDS011;9495;51.210;2.934;2023-05-10T03:23:43;32.87;;;19.53;;
18732;SDS011;9495;51.210;2.934;2023-05-10T03:26:15;35.40;;;19.83;;
18732;SDS011;9495;51.210;2.934;2023-05-10T03:28:48;34.83;;;21.17;;
18732;SDS011;9495;51.210;2.934;2023-05-10T03:31:17;31.57;;;20.43;;
18732;SDS011;9495;51.210;2.934;2023-05-10T03:33:46;33.80;;;20.60;;
18732;SDS011;9495;51.210;2.934;2023-05-10T03:36:16;43.53;;;23.57;;
18732;SDS011;9495;51.210;2.934;2023-05-10T03:38:45;38.37;;;22.33;;
18732;SDS011;9495;51.210;2.934;2023-05-10T03:41:13;33.00;;;19.60;;
18732;SDS011;9495;51.210;2.934;2023-05-10T03:43:42;28.13;;;16.17;;
18732;SDS011;9495;51.210;2.934;2023-05-10T03:46:10;36.00;;;20.97;;
18732;SDS011;9495;51.210;2.934;2023-05-10T03:48:39;38.37;;;21.23;;
18732;SDS011;9495;51.210;2.934;2023-05-10T03:51:07;30.60;;;19.77;;
18732;SDS011;9495;51.210;2.934;2023-05-10T03:53:37;36.23;;;21.50;;
18732;SDS011;9495;51.210;2.934;2023-05-10T03:56:05;32.67;;;20.13;;
18732;SDS011;9495;51.210;2.934;2023-05-10T03:58:34;42.27;;;23.63;;
18732;SDS011;9495;51.210;2.934;2023-05-10T04:01:02;36.83;;;21.40;;
18732;SDS011;9495;51.210;2.934;2023-05-10T04:03:31;39.57;;;22.70;;
18732;SDS011;9495;51.210;2.934;2023-05-10T04:05:59;37.23;;;21.73;;
18732;SDS011;9495;51.210;2.934;2023-05-10T04:08:28;43.07;;;23.30;;
18732;SDS011;9495;51.210;2.934;2023-05-10T04:11:05;39.53;;;21.57;;
18732;SDS011;9495;51.210;2.934;2023-05-10T04:13:35;40.83;;;22.43;;
18732;SDS011;9495;51.210;2.934;2023-05-10T04:16:03;40.40;;;22.30;;
18732;SDS011;9495;51.210;2.934;2023-05-10T04:18:32;38.90;;;22.33;;
18732;SDS011;9495;51.210;2.934;2023-05-10T04:21:01;44.70;;;25.40;;
18732;SDS011;9495;51.210;2.934;2023-05-10T04:23:29;49.07;;;25.20;;
18732;SDS011;9495;51.210;2.934;2023-05-10T04:26:00;50.50;;;27.17;;
18732;SDS011;9495;51.210;2.934;2023-05-10T04:28:31;51.33;;;28.47;;
18732;SDS011;9495;51.210;2.934;2023-05-10T04:31:02;52.60;;;29.17;;
18732;SDS011;9495;51.210;2.934;2023-05-10T04:33:32;52.77;;;28.83;;
18732;SDS011;9495;51.210;2.934;2023-05-10T04:36:00;59.97;;;29.37;;
18732;SDS011;9495;51.210;2.934;2023-05-10T04:38:29;49.07;;;28.23;;
18732;SDS011;9495;51.210;2.934;2023-05-10T04:41:04;55.03;;;29.10;;
18732;SDS011;9495;51.210;2.934;2023-05-10T04:43:34;54.00;;;28.43;;
18732;SDS011;9495;51.210;2.934;2023-05-10T04:46:03;53.00;;;28.20;;
18732;SDS011;9495;51.210;2.934;2023-05-10T04:48:32;55.23;;;28.37;;
18732;SDS011;9495;51.210;2.934;2023-05-10T04:51:01;62.23;;;28.23;;
18732;SDS011;9495;51.210;2.934;2023-05-10T04:53:31;57.93;;;27.47;;
18732;SDS011;9495;51.210;2.934;2023-05-10T04:55:59;56.10;;;28.60;;
18732;SDS011;9495;51.210;2.934;2023-05-10T04:58:27;60.03;;;29.90;;
18732;SDS011;9495;51.210;2.934;2023-05-10T05:00:59;58.10;;;29.87;;
18732;SDS011;9495;51.210;2.934;2023-05-10T05:03:32;62.37;;;31.03;;
18732;SDS011;9495;51.210;2.934;2023-05-10T05:06:01;57.63;;;29.97;;
18732;SDS011;9495;51.210;2.934;2023-05-10T05:08:30;61.20;;;32.80;;
18732;SDS011;9495;51.210;2.934;2023-05-10T05:10:58;64.40;;;32.37;;
18732;SDS011;9495;51.210;2.934;2023-05-10T05:13:27;65.40;;;31.43;;
18732;SDS011;9495;51.210;2.934;2023-05-10T05:15:55;66.80;;;33.30;;
18732;SDS011;9495;51.210;2.934;2023-05-10T05:18:27;67.03;;;32.20;;
18732;SDS011;9495;51.210;2.934;2023-05-10T05:20:56;62.43;;;31.87;;
18732;SDS011;9495;51.210;2.934;2023-05-10T05:23:24;63.73;;;30.83;;
18732;SDS011;9495;51.210;2.934;2023-05-10T05:25:53;66.20;;;32.40;;
18732;SDS011;9495;51.210;2.934;2023-05-10T05:28:21;67.23;;;30.33;;
18732;SDS011;9495;51.210;2.934;2023-05-10T05:30:50;63.00;;;29.77;;
18732;SDS011;9495;51.210;2.934;2023-05-10T05:33:20;66.60;;;30.03;;
18732;SDS011;9495;51.210;2.934;2023-05-10T05:35:48;62.33;;;27.33;;
18732;SDS011;9495;51.210;2.934;2023-05-10T05:38:17;49.40;;;26.53;;
18732;SDS011;9495;51.210;2.934;2023-05-10T05:40:45;50.97;;;25.20;;
18732;SDS011;9495;51.210;2.934;2023-05-10T05:43:14;51.67;;;23.90;;
18732;SDS011;9495;51.210;2.934;2023-05-10T05:45:42;43.20;;;23.23;;
18732;SDS011;9495;51.210;2.934;2023-05-10T05:48:11;43.37;;;21.50;;
18732;SDS011;9495;51.210;2.934;2023-05-10T05:50:40;42.63;;;21.50;;
18732;SDS011;9495;51.210;2.934;2023-05-10T05:53:09;43.37;;;21.80;;
18732;SDS011;9495;51.210;2.934;2023-05-10T05:55:38;38.63;;;20.10;;
18732;SDS011;9495;51.210;2.934;2023-05-10T05:58:06;35.67;;;19.00;;
18732;SDS011;9495;51.210;2.934;2023-05-10T06:00:34;30.33;;;17.80;;
18732;SDS011;9495;51.210;2.934;2023-05-10T06:03:03;34.73;;;17.30;;
18732;SDS011;9495;51.210;2.934;2023-05-10T06:05:32;31.60;;;17.60;;
18732;SDS011;9495;51.210;2.934;2023-05-10T06:08:02;29.23;;;16.90;;
18732;SDS011;9495;51.210;2.934;2023-05-10T06:10:31;26.80;;;13.63;;
18732;SDS011;9495;51.210;2.934;2023-05-10T06:13:00;27.33;;;14.77;;
18732;SDS011;9495;51.210;2.934;2023-05-10T06:15:28;23.90;;;13.87;;
18732;SDS011;9495;51.210;2.934;2023-05-10T06:17:56;22.77;;;14.20;;
18732;SDS011;9495;51.210;2.934;2023-05-10T06:20:25;21.03;;;13.60;;
18732;SDS011;9495;51.210;2.934;2023-05-10T06:22:54;27.73;;;14.43;;
18732;SDS011;9495;51.210;2.934;2023-05-10T06:25:23;23.53;;;14.53;;
18732;SDS011;9495;51.210;2.934;2023-05-10T06:27:52;25.20;;;14.03;;
18732;SDS011;9495;51.210;2.934;2023-05-10T06:30:24;22.00;;;13.53;;
18732;SDS011;9495;51.210;2.934;2023-05-10T06:32:55;22.23;;;13.97;;
18732;SDS011;9495;51.210;2.934;2023-05-10T06:35:23;23.00;;;14.27;;
18732;SDS011;9495;51.210;2.934;2023-05-10T06:37:52;22.53;;;14.13;;
18732;SDS011;9495;51.210;2.934;2023-05-10T06:40:21;18.73;;;13.33;;
18732;SDS011;9495;51.210;2.934;2023-05-10T06:42:51;20.70;;;14.50;;
18732;SDS011;9495;51.210;2.934;2023-05-10T06:45:19;23.13;;;14.70;;
18732;SDS011;9495;51.210;2.934;2023-05-10T06:47:47;20.67;;;13.40;;
18732;SDS011;9495;51.210;2.934;2023-05-10T06:50:16;23.80;;;14.23;;
18732;SDS011;9495;51.210;2.934;2023-05-10T06:52:45;24.83;;;14.20;;
18732;SDS011;9495;51.210;2.934;2023-05-10T06:55:13;22.43;;;13.80;;
18732;SDS011;9495;51.210;2.934;2023-05-10T06:57:42;21.73;;;13.63;;
18732;SDS011;9495;51.210;2.934;2023-05-10T07:00:12;24.10;;;14.37;;
18732;SDS011;9495;51.210;2.934;2023-05-10T07:02:42;26.00;;;16.27;;
18732;SDS011;9495;51.210;2.934;2023-05-10T07:05:11;23.33;;;14.53;;
18732;SDS011;9495;51.210;2.934;2023-05-10T07:07:39;21.00;;;13.90;;
18732;SDS011;9495;51.210;2.934;2023-05-10T07:10:09;22.23;;;14.63;;
18732;SDS011;9495;51.210;2.934;2023-05-10T07:12:37;24.40;;;15.23;;
18732;SDS011;9495;51.210;2.934;2023-05-10T07:15:06;24.10;;;15.50;;
18732;SDS011;9495;51.210;2.934;2023-05-10T07:17:37;26.33;;;15.43;;
18732;SDS011;9495;51.210;2.934;2023-05-10T07:20:08;27.47;;;14.03;;
18732;SDS011;9495;51.210;2.934;2023-05-10T07:22:37;26.07;;;14.43;;
18732;SDS011;9495;51.210;2.934;2023-05-10T07:25:06;25.67;;;15.00;;
18732;SDS011;9495;51.210;2.934;2023-05-10T07:27:35;25.00;;;14.93;;
18732;SDS011;9495;51.210;2.934;2023-05-10T07:30:04;25.63;;;14.00;;
18732;SDS011;9495;51.210;2.934;2023-05-10T07:32:32;27.53;;;14.13;;
18732;SDS011;9495;51.210;2.934;2023-05-10T07:35:03;22.10;;;14.20;;
18732;SDS011;9495;51.210;2.934;2023-05-10T07:37:32;27.03;;;13.97;;
18732;SDS011;9495;51.210;2.934;2023-05-10T07:40:00;22.20;;;13.53;;
18732;SDS011;9495;51.210;2.934;2023-05-10T07:42:29;23.93;;;13.37;;
18732;SDS011;9495;51.210;2.934;2023-05-10T07:44:57;26.53;;;15.67;;
18732;SDS011;9495;51.210;2.934;2023-05-10T07:47:26;33.27;;;16.77;;
18732;SDS011;9495;51.210;2.934;2023-05-10T07:49:54;24.17;;;15.30;;
18732;SDS011;9495;51.210;2.934;2023-05-10T07:52:24;27.67;;;16.47;;
18732;SDS011;9495;51.210;2.934;2023-05-10T07:54:52;30.87;;;16.70;;
18732;SDS011;9495;51.210;2.934;2023-05-10T07:57:23;25.60;;;16.23;;
18732;SDS011;9495;51.210;2.934;2023-05-10T07:59:51;28.87;;;14.13;;
18732;SDS011;9495;51.210;2.934;2023-05-10T08:02:20;24.57;;;13.93;;
18732;SDS011;9495;51.210;2.934;2023-05-10T08:04:48;21.73;;;13.57;;
18732;SDS011;9495;51.210;2.934;2023-05-10T08:07:17;26.93;;;15.33;;
18732;SDS011;9495;51.210;2.934;2023-05-10T08:09:47;24.80;;;14.23;;
18732;SDS011;9495;51.210;2.934;2023-05-10T08:12:15;22.20;;;12.97;;
18732;SDS011;9495;51.210;2.934;2023-05-10T08:14:44;25.70;;;13.50;;
18732;SDS011;9495;51.210;2.934;2023-05-10T08:17:12;25.23;;;14.43;;
18732;SDS011;9495;51.210;2.934;2023-05-10T08:19:41;25.73;;;13.60;;
18732;SDS011;9495;51.210;2.934;2023-05-10T08:22:09;20.83;;;12.77;;
18732;SDS011;9495;51.210;2.934;2023-05-10T08:24:37;25.60;;;14.70;;
18732;SDS011;9495;51.210;2.934;2023-05-10T08:27:09;20.97;;;12.70;;
18732;SDS011;9495;51.210;2.934;2023-05-10T08:29:38;23.73;;;13.73;;
18732;SDS011;9495;51.210;2.934;2023-05-10T08:32:16;22.37;;;13.20;;
18732;SDS011;9495;51.210;2.934;2023-05-10T08:34:44;21.67;;;12.40;;
18732;SDS011;9495;51.210;2.934;2023-05-10T08:37:12;25.80;;;12.83;;
18732;SDS011;9495;51.210;2.934;2023-05-10T08:39:41;22.00;;;12.43;;
18732;SDS011;9495;51.210;2.934;2023-05-10T08:42:11;23.03;;;12.80;;
18732;SDS011;9495;51.210;2.934;2023-05-10T08:44:39;26.40;;;12.83;;
18732;SDS011;9495;51.210;2.934;2023-05-10T08:47:08;24.83;;;12.20;;
18732;SDS011;9495;51.210;2.934;2023-05-10T08:49:39;22.90;;;12.57;;
18732;SDS011;9495;51.210;2.934;2023-05-10T08:52:08;22.43;;;11.70;;
18732;SDS011;9495;51.210;2.934;2023-05-10T08:54:40;21.73;;;12.10;;
18732;SDS011;9495;51.210;2.934;2023-05-10T08:57:11;23.80;;;12.27;;
18732;SDS011;9495;51.210;2.934;2023-05-10T08:59:39;25.17;;;11.97;;
18732;SDS011;9495;51.210;2.934;2023-05-10T09:02:08;18.07;;;10.93;;
18732;SDS011;9495;51.210;2.934;2023-05-10T09:04:39;20.63;;;11.53;;
18732;SDS011;9495;51.210;2.934;2023-05-10T09:07:08;24.77;;;11.77;;
18732;SDS011;9495;51.210;2.934;2023-05-10T09:09:38;22.10;;;11.40;;
18732;SDS011;9495;51.210;2.934;2023-05-10T09:12:07;20.97;;;10.70;;
18732;SDS011;9495;51.210;2.934;2023-05-10T09:14:38;26.77;;;10.83;;
18732;SDS011;9495;51.210;2.934;2023-05-10T09:17:07;20.37;;;10.70;;
18732;SDS011;9495;51.210;2.934;2023-05-10T09:19:36;27.57;;;11.57;;
18732;SDS011;9495;51.210;2.934;2023-05-10T09:22:05;20.37;;;10.60;;
18732;SDS011;9495;51.210;2.934;2023-05-10T09:24:34;18.90;;;9.10;;
18732;SDS011;9495;51.210;2.934;2023-05-10T09:27:03;17.17;;;9.93;;
18732;SDS011;9495;51.210;2.934;2023-05-10T09:29:40;23.97;;;11.17;;
18732;SDS011;9495;51.210;2.934;2023-05-10T09:32:09;20.33;;;9.43;;
18732;SDS011;9495;51.210;2.934;2023-05-10T09:34:39;16.73;;;9.07;;
18732;SDS011;9495;51.210;2.934;2023-05-10T09:37:08;20.53;;;8.90;;
18732;SDS011;9495;51.210;2.934;2023-05-10T09:39:37;21.45;;;9.15;;
18732;SDS011;9495;51.210;2.934;2023-05-10T09:42:06;17.70;;;8.47;;
18732;SDS011;9495;51.210;2.934;2023-05-10T09:44:35;15.47;;;8.43;;
18732;SDS011;9495;51.210;2.934;2023-05-10T09:47:05;20.48;;;9.40;;
18732;SDS011;9495;51.210;2.934;2023-05-10T09:49:34;18.53;;;8.10;;
18732;SDS011;9495;51.210;2.934;2023-05-10T09:52:03;19.70;;;8.00;;
18732;SDS011;9495;51.210;2.934;2023-05-10T09:54:32;18.47;;;7.63;;
18732;SDS011;9495;51.210;2.934;2023-05-10T09:57:01;19.23;;;7.67;;
18732;SDS011;9495;51.210;2.934;2023-05-10T09:59:32;18.93;;;7.40;;
18732;SDS011;9495;51.210;2.934;2023-05-10T10:02:01;19.40;;;8.07;;
18732;SDS011;9495;51.210;2.934;2023-05-10T10:04:31;16.83;;;7.70;;
18732;SDS011;9495;51.210;2.934;2023-05-10T10:07:06;18.77;;;7.67;;
18732;SDS011;9495;51.210;2.934;2023-05-10T10:09:35;20.17;;;7.63;;
18732;SDS011;9495;51.210;2.934;2023-05-10T10:12:03;18.37;;;7.93;;
18732;SDS011;9495;51.210;2.934;2023-05-10T10:14:32;14.87;;;6.70;;
18732;SDS011;9495;51.210;2.934;2023-05-10T10:17:01;12.07;;;5.90;;
18732;SDS011;9495;51.210;2.934;2023-05-10T10:19:35;20.37;;;7.97;;
18732;SDS011;9495;51.210;2.934;2023-05-10T10:22:04;21.93;;;8.07;;
18732;SDS011;9495;51.210;2.934;2023-05-10T10:24:33;19.52;;;6.63;;
18732;SDS011;9495;51.210;2.934;2023-05-10T10:27:03;17.25;;;6.10;;
18732;SDS011;9495;51.210;2.934;2023-05-10T10:29:39;16.03;;;5.77;;
18732;SDS011;9495;51.210;2.934;2023-05-10T10:32:18;14.47;;;6.00;;
18732;SDS011;9495;51.210;2.934;2023-05-10T10:34:53;14.97;;;5.93;;
18732;SDS011;9495;51.210;2.934;2023-05-10T10:37:22;13.50;;;5.80;;
18732;SDS011;9495;51.210;2.934;2023-05-10T10:39:51;18.13;;;5.95;;
18732;SDS011;9495;51.210;2.934;2023-05-10T10:45:12;15.93;;;5.88;;
18732;SDS011;9495;51.210;2.934;2023-05-10T10:47:41;17.23;;;5.33;;
18732;SDS011;9495;51.210;2.934;2023-05-10T10:50:12;15.70;;;5.17;;
18732;SDS011;9495;51.210;2.934;2023-05-10T10:52:42;16.85;;;4.95;;
18732;SDS011;9495;51.210;2.934;2023-05-10T10:55:12;14.50;;;4.70;;
18732;SDS011;9495;51.210;2.934;2023-05-10T10:57:44;18.25;;;5.55;;
18732;SDS011;9495;51.210;2.934;2023-05-10T11:00:22;14.30;;;5.30;;
18732;SDS011;9495;51.210;2.934;2023-05-10T11:02:53;18.65;;;5.53;;
18732;SDS011;9495;51.210;2.934;2023-05-10T11:08:16;19.05;;;6.22;;
18732;SDS011;9495;51.210;2.934;2023-05-10T11:10:53;20.07;;;5.30;;
18732;SDS011;9495;51.210;2.934;2023-05-10T11:13:34;20.67;;;5.13;;
18732;SDS011;9495;51.210;2.934;2023-05-10T11:16:12;13.35;;;4.90;;
18732;SDS011;9495;51.210;2.934;2023-05-10T11:18:52;14.30;;;4.63;;
18732;SDS011;9495;51.210;2.934;2023-05-10T11:21:25;13.90;;;4.45;;
18732;SDS011;9495;51.210;2.934;2023-05-10T11:23:54;13.90;;;3.97;;
18732;SDS011;9495;51.210;2.934;2023-05-10T11:26:24;13.60;;;4.75;;
18732;SDS011;9495;51.210;2.934;2023-05-10T11:28:53;15.25;;;4.90;;
18732;SDS011;9495;51.210;2.934;2023-05-10T11:31:23;14.32;;;4.30;;
18732;SDS011;9495;51.210;2.934;2023-05-10T11:33:53;10.35;;;4.00;;
18732;SDS011;9495;51.210;2.934;2023-05-10T11:36:25;14.95;;;4.43;;
18732;SDS011;9495;51.210;2.934;2023-05-10T11:38:55;14.00;;;4.85;;
18732;SDS011;9495;51.210;2.934;2023-05-10T11:41:23;14.93;;;4.70;;
18732;SDS011;9495;51.210;2.934;2023-05-10T11:43:53;12.30;;;4.63;;
18732;SDS011;9495;51.210;2.934;2023-05-10T11:46:24;13.27;;;4.22;;
18732;SDS011;9495;51.210;2.934;2023-05-10T11:48:54;12.88;;;4.22;;
18732;SDS011;9495;51.210;2.934;2023-05-10T11:51:25;15.00;;;5.27;;
18732;SDS011;9495;51.210;2.934;2023-05-10T11:53:54;15.07;;;4.78;;
18732;SDS011;9495;51.210;2.934;2023-05-10T11:56:23;14.30;;;4.13;;
18732;SDS011;9495;51.210;2.934;2023-05-10T11:58:54;14.18;;;4.10;;
18732;SDS011;9495;51.210;2.934;2023-05-10T12:01:23;13.23;;;4.65;;
18732;SDS011;9495;51.210;2.934;2023-05-10T12:03:53;13.77;;;3.90;;
18732;SDS011;9495;51.210;2.934;2023-05-10T12:06:27;14.82;;;4.68;;
18732;SDS011;9495;51.210;2.934;2023-05-10T12:08:58;11.27;;;4.22;;
18732;SDS011;9495;51.210;2.934;2023-05-10T12:11:27;15.18;;;4.38;;
18732;SDS011;9495;51.210;2.934;2023-05-10T12:13:56;14.37;;;4.27;;
18732;SDS011;9495;51.210;2.934;2023-05-10T12:16:24;16.98;;;5.38;;
18732;SDS011;9495;51.210;2.934;2023-05-10T12:18:56;16.85;;;4.95;;
18732;SDS011;9495;51.210;2.934;2023-05-10T12:21:27;14.05;;;4.45;;
18732;SDS011;9495;51.210;2.934;2023-05-10T12:23:59;9.93;;;3.75;;
18732;SDS011;9495;51.210;2.934;2023-05-10T12:26:29;13.38;;;4.50;;
18732;SDS011;9495;51.210;2.934;2023-05-10T12:29:11;14.10;;;3.85;;
18732;SDS011;9495;51.210;2.934;2023-05-10T12:31:51;17.42;;;5.50;;
18732;SDS011;9495;51.210;2.934;2023-05-10T12:34:26;24.95;;;5.07;;
18732;SDS011;9495;51.210;2.934;2023-05-10T12:36:59;10.00;;;3.75;;
18732;SDS011;9495;51.210;2.934;2023-05-10T12:39:37;10.65;;;4.07;;
18732;SDS011;9495;51.210;2.934;2023-05-10T12:42:06;13.65;;;4.95;;
18732;SDS011;9495;51.210;2.934;2023-05-10T12:44:35;14.65;;;4.30;;
18732;SDS011;9495;51.210;2.934;2023-05-10T12:47:03;15.90;;;4.97;;
18732;SDS011;9495;51.210;2.934;2023-05-10T12:49:32;11.63;;;4.30;;
18732;SDS011;9495;51.210;2.934;2023-05-10T12:52:03;19.95;;;5.32;;
18732;SDS011;9495;51.210;2.934;2023-05-10T12:54:31;12.27;;;4.15;;
18732;SDS011;9495;51.210;2.934;2023-05-10T12:57:00;17.73;;;4.85;;
18732;SDS011;9495;51.210;2.934;2023-05-10T12:59:28;12.05;;;3.90;;
18732;SDS011;9495;51.210;2.934;2023-05-10T13:01:57;12.65;;;4.00;;
18732;SDS011;9495;51.210;2.934;2023-05-10T13:04:25;17.27;;;4.80;;
18732;SDS011;9495;51.210;2.934;2023-05-10T13:06:54;14.35;;;4.13;;
18732;SDS011;9495;51.210;2.934;2023-05-10T13:09:26;13.25;;;4.60;;
18732;SDS011;9495;51.210;2.934;2023-05-10T13:11:56;13.65;;;4.40;;
18732;SDS011;9495;51.210;2.934;2023-05-10T13:14:24;14.25;;;4.60;;
18732;SDS011;9495;51.210;2.934;2023-05-10T13:16:52;12.20;;;3.85;;
18732;SDS011;9495;51.210;2.934;2023-05-10T13:19:21;13.13;;;4.35;;
18732;SDS011;9495;51.210;2.934;2023-05-10T13:21:49;14.02;;;4.30;;
18732;SDS011;9495;51.210;2.934;2023-05-10T13:24:18;18.98;;;5.10;;
18732;SDS011;9495;51.210;2.934;2023-05-10T13:26:48;14.80;;;4.90;;
18732;SDS011;9495;51.210;2.934;2023-05-10T13:29:17;16.02;;;4.40;;
18732;SDS011;9495;51.210;2.934;2023-05-10T13:31:47;13.38;;;4.20;;
18732;SDS011;9495;51.210;2.934;2023-05-10T13:34:15;12.82;;;4.25;;
18732;SDS011;9495;51.210;2.934;2023-05-10T13:36:46;15.07;;;4.53;;
18732;SDS011;9495;51.210;2.934;2023-05-10T13:39:15;14.70;;;4.22;;
18732;SDS011;9495;51.210;2.934;2023-05-10T13:41:44;13.40;;;3.80;;
18732;SDS011;9495;51.210;2.934;2023-05-10T13:44:13;11.32;;;4.22;;
18732;SDS011;9495;51.210;2.934;2023-05-10T13:46:42;14.65;;;4.07;;
18732;SDS011;9495;51.210;2.934;2023-05-10T13:49:11;13.82;;;4.03;;
18732;SDS011;9495;51.210;2.934;2023-05-10T13:51:40;17.15;;;5.88;;
18732;SDS011;9495;51.210;2.934;2023-05-10T13:54:08;12.43;;;4.00;;
18732;SDS011;9495;51.210;2.934;2023-05-10T13:56:39;18.88;;;5.05;;
18732;SDS011;9495;51.210;2.934;2023-05-10T13:59:07;16.20;;;4.07;;
18732;SDS011;9495;51.210;2.934;2023-05-10T14:01:37;14.75;;;5.03;;
18732;SDS011;9495;51.210;2.934;2023-05-10T14:04:06;15.65;;;4.68;;
18732;SDS011;9495;51.210;2.934;2023-05-10T14:06:36;19.75;;;4.95;;
18732;SDS011;9495;51.210;2.934;2023-05-10T14:09:06;14.13;;;4.45;;
18732;SDS011;9495;51.210;2.934;2023-05-10T14:11:35;10.15;;;4.20;;
18732;SDS011;9495;51.210;2.934;2023-05-10T14:14:08;13.52;;;5.13;;
18732;SDS011;9495;51.210;2.934;2023-05-10T14:16:38;14.77;;;5.22;;
18732;SDS011;9495;51.210;2.934;2023-05-10T14:19:09;15.77;;;5.07;;
18732;SDS011;9495;51.210;2.934;2023-05-10T14:21:38;16.73;;;5.22;;
18732;SDS011;9495;51.210;2.934;2023-05-10T14:24:07;16.90;;;4.90;;
18732;SDS011;9495;51.210;2.934;2023-05-10T14:26:36;15.25;;;4.55;;
18732;SDS011;9495;51.210;2.934;2023-05-10T14:29:04;15.18;;;5.18;;
18732;SDS011;9495;51.210;2.934;2023-05-10T14:31:36;13.65;;;4.55;;
18732;SDS011;9495;51.210;2.934;2023-05-10T14:34:06;13.93;;;4.75;;
18732;SDS011;9495;51.210;2.934;2023-05-10T14:36:34;14.65;;;4.50;;
18732;SDS011;9495;51.210;2.934;2023-05-10T14:39:03;11.50;;;4.72;;
18732;SDS011;9495;51.210;2.934;2023-05-10T14:41:33;10.10;;;3.65;;
18732;SDS011;9495;51.210;2.934;2023-05-10T14:44:02;22.77;;;5.47;;
18732;SDS011;9495;51.210;2.934;2023-05-10T14:46:30;14.13;;;4.50;;
18732;SDS011;9495;51.210;2.934;2023-05-10T14:49:00;10.80;;;4.97;;
18732;SDS011;9495;51.210;2.934;2023-05-10T14:51:29;13.90;;;4.80;;
18732;SDS011;9495;51.210;2.934;2023-05-10T14:53:58;14.55;;;5.25;;
18732;SDS011;9495;51.210;2.934;2023-05-10T14:56:27;9.15;;;4.97;;
18732;SDS011;9495;51.210;2.934;2023-05-10T14:58:55;12.52;;;5.60;;
18732;SDS011;9495;51.210;2.934;2023-05-10T15:01:24;13.48;;;5.78;;
18732;SDS011;9495;51.210;2.934;2023-05-10T15:03:53;9.93;;;5.00;;